nws-alerts: Checking more than four warning/county codes can delay the loading of your pages. You should use a cron job to get the data.
EllijayWeather Station Historical Data
Daily Summary for May 4, 2019 Units:  English    Metric   Both
Daily Weekly Monthly Yearly Custom
  High: Low: Average:
Temperature: 76.3 °F 58.6 °F 65.7 °F
Dew Point: 68.4 °F 57.6 °F 63.2 °F
Humidity: 98% 70% 92%
Wind Speed: 6mph 0mph 0.1mph
Wind Gust: 8mph - -
Wind- - WSW
Pressure: 29.98 in 29.76 in -
Precipitation: 0.57 in    
Historical Graphs
 
 
Tabular Data for May 4, 2019
Time Temperature Dew Point Pressure Wind Wind Speed Wind Gust Humidity Rainfall Rate (Hourly) solar
00:04 62.8 °F 60.8 °F 29.97 in Calm     93% 0 in meteobridge W/m2
00:09 62.8 °F 60.8 °F 29.97 in Calm     93% 0 in meteobridge W/m2
00:14 62.6 °F 60.8 °F 29.97 in Calm     94% 0 in meteobridge W/m2
00:19 62.4 °F 60.6 °F 29.96 in Calm     94% 0 in meteobridge W/m2
00:24 62.4 °F 60.6 °F 29.97 in Calm     94% 0 in meteobridge W/m2
00:29 62.2 °F 60.4 °F 29.97 in Calm     94% 0 in meteobridge W/m2
00:34 62.2 °F 60.4 °F 29.97 in Calm     94% 0 in meteobridge W/m2
00:39 62.2 °F 60.4 °F 29.97 in Calm     94% 0 in meteobridge W/m2
00:44 62.2 °F 60.8 °F 29.97 in Calm     95% 0 in meteobridge W/m2
00:49 62.4 °F 61 °F 29.98 in Calm     95% 0 in meteobridge W/m2
00:54 62.2 °F 60.8 °F 29.98 in Calm     95% 0 in meteobridge W/m2
00:59 62.2 °F 60.8 °F 29.98 in Calm     95% 0 in meteobridge W/m2
01:04 62.2 °F 60.8 °F 29.97 in Calm     95% 0 in meteobridge W/m2
01:09 62.1 °F 60.3 °F 29.97 in Calm     94% 0 in meteobridge W/m2
01:14 62.1 °F 60.3 °F 29.97 in Calm     94% 0 in meteobridge W/m2
01:19 61.9 °F 60.4 °F 29.97 in Calm     95% 0 in meteobridge W/m2
01:24 61.9 °F 60.4 °F 29.97 in Calm     95% 0 in meteobridge W/m2
01:29 61.9 °F 60.4 °F 29.96 in Calm     95% 0 in meteobridge W/m2
01:34 61.7 °F 60.3 °F 29.96 in Calm     95% 0 in meteobridge W/m2
01:39 61.5 °F 60.1 °F 29.96 in Calm     95% 0 in meteobridge W/m2
01:44 61.5 °F 60.1 °F 29.96 in Calm     95% 0 in meteobridge W/m2
01:49 61.5 °F 60.1 °F 29.96 in Calm     95% 0 in meteobridge W/m2
01:54 61.3 °F 59.9 °F 29.96 in Calm     95% 0 in meteobridge W/m2
01:59 61.3 °F 59.9 °F 29.95 in Calm     95% 0 in meteobridge W/m2
02:04 61.2 °F 59.7 °F 29.95 in Calm     95% 0 in meteobridge W/m2
02:09 61.2 °F 59.7 °F 29.95 in Calm     95% 0 in meteobridge W/m2
02:14 61.2 °F 59.7 °F 29.95 in Calm     95% 0 in meteobridge W/m2
02:19 61 °F 59.5 °F 29.95 in Calm     95% 0 in meteobridge W/m2
02:24 61 °F 59.5 °F 29.95 in Calm     95% 0 in meteobridge W/m2
02:29 60.6 °F 59.2 °F 29.94 in Calm     95% 0 in meteobridge W/m2
02:34 60.4 °F 59 °F 29.94 in Calm     95% 0 in meteobridge W/m2
02:39 60.4 °F 59 °F 29.94 in Calm     95% 0 in meteobridge W/m2
02:44 60.3 °F 58.8 °F 29.94 in Calm     95% 0 in meteobridge W/m2
02:49 60.3 °F 58.8 °F 29.93 in Calm     95% 0 in meteobridge W/m2
02:54 60.1 °F 58.6 °F 29.93 in Calm     95% 0 in meteobridge W/m2
02:59 60.1 °F 58.6 °F 29.93 in Calm     95% 0 in meteobridge W/m2
03:04 59.9 °F 58.5 °F 29.93 in Calm     95% 0 in meteobridge W/m2
03:09 59.7 °F 58.3 °F 29.93 in Calm     95% 0 in meteobridge W/m2
03:14 59.7 °F 58.6 °F 29.93 in Calm     96% 0 in meteobridge W/m2
03:19 59.7 °F 58.6 °F 29.92 in Calm     96% 0 in meteobridge W/m2
03:24 59.7 °F 58.6 °F 29.92 in Calm     96% 0 in meteobridge W/m2
03:29 59.7 °F 58.6 °F 29.92 in Calm     96% 0 in meteobridge W/m2
03:34 59.5 °F 58.5 °F 29.92 in Calm     96% 0 in meteobridge W/m2
03:39 59.5 °F 58.5 °F 29.92 in Calm     96% 0 in meteobridge W/m2
03:44 59.5 °F 58.5 °F 29.92 in Calm     96% 0 in meteobridge W/m2
03:49 59.4 °F 58.3 °F 29.92 in Calm     96% 0 in meteobridge W/m2
03:54 59.4 °F 58.3 °F 29.92 in Calm     96% 0 in meteobridge W/m2
03:59 59.4 °F 58.3 °F 29.92 in Calm     96% 0 in meteobridge W/m2
04:04 59.2 °F 58.1 °F 29.92 in Calm     96% 0 in meteobridge W/m2
04:09 59.2 °F 57.7 °F 29.92 in Calm     95% 0 in meteobridge W/m2
04:14 59 °F 57.9 °F 29.92 in Calm     96% 0 in meteobridge W/m2
04:19 58.8 °F 57.7 °F 29.91 in Calm     96% 0 in meteobridge W/m2
04:24 58.6 °F 57.6 °F 29.91 in Calm     96% 0 in meteobridge W/m2
04:29 58.6 °F 57.6 °F 29.91 in Calm     96% 0 in meteobridge W/m2
04:34 58.6 °F 57.6 °F 29.91 in Calm     96% 0 in meteobridge W/m2
04:39 58.8 °F 57.7 °F 29.91 in Calm     96% 0 in meteobridge W/m2
04:44 58.6 °F 57.6 °F 29.91 in Calm     96% 0 in meteobridge W/m2
04:49 58.8 °F 57.7 °F 29.91 in Calm     96% 0 in meteobridge W/m2
04:54 58.8 °F 57.9 °F 29.91 in Calm     97% 0 in meteobridge W/m2
04:59 58.8 °F 57.9 °F 29.91 in Calm     97% 0 in meteobridge W/m2
05:04 59 °F 58.1 °F 29.91 in Calm     97% 0 in meteobridge W/m2
05:09 59 °F 58.1 °F 29.91 in Calm     97% 0 in meteobridge W/m2
05:14 59.2 °F 58.3 °F 29.91 in Calm     97% 0 in meteobridge W/m2
05:19 59.2 °F 58.3 °F 29.90 in Calm     97% 0 in meteobridge W/m2
05:24 59.4 °F 58.5 °F 29.91 in Calm     97% 0 in meteobridge W/m2
05:29 59.4 °F 58.5 °F 29.91 in Calm     97% 0 in meteobridge W/m2
05:34 59.4 °F 58.5 °F 29.91 in Calm     97% 0 in meteobridge W/m2
05:39 59.5 °F 58.6 °F 29.91 in Calm     97% 0 in meteobridge W/m2
05:44 59.4 °F 58.5 °F 29.91 in Calm     97% 0 in meteobridge W/m2
05:49 59.5 °F 58.6 °F 29.91 in Calm     97% 0 in meteobridge W/m2
05:54 59.5 °F 58.6 °F 29.91 in Calm     97% 0 in meteobridge W/m2
05:59 59.5 °F 58.6 °F 29.91 in Calm     97% 0 in meteobridge W/m2
06:04 59.5 °F 58.5 °F 29.91 in Calm     96% 0 in meteobridge W/m2
06:09 59.5 °F 58.5 °F 29.91 in Calm     96% 0 in meteobridge W/m2
06:14 59.4 °F 58.5 °F 29.91 in Calm     97% 0 in meteobridge W/m2
06:19 59.4 °F 58.3 °F 29.91 in Calm     96% 0 in meteobridge W/m2
06:24 59.4 °F 58.5 °F 29.91 in Calm     97% 0 in meteobridge W/m2
06:29 59.5 °F 58.6 °F 29.91 in Calm     97% 0 in meteobridge W/m2
06:34 59.5 °F 58.6 °F 29.91 in Calm     97% 0 in meteobridge W/m2
06:39 59.5 °F 58.6 °F 29.91 in Calm     97% 0 in meteobridge W/m2
06:44 59.5 °F 58.6 °F 29.91 in Calm     97% 0 in meteobridge W/m2
06:49 59.5 °F 58.6 °F 29.91 in Calm     97% 0 in meteobridge W/m2
06:54 59.7 °F 58.8 °F 29.91 in Calm     97% 0 in meteobridge W/m2
06:59 59.7 °F 58.8 °F 29.91 in Calm     97% 0 in meteobridge W/m2
07:04 59.7 °F 58.8 °F 29.91 in Calm     97% 0 in meteobridge W/m2
07:09 59.7 °F 58.8 °F 29.91 in Calm     97% 0 in meteobridge W/m2
07:14 59.7 °F 58.8 °F 29.91 in Calm     97% 0 in meteobridge W/m2
07:19 59.7 °F 58.8 °F 29.91 in Calm     97% 0 in meteobridge W/m2
07:24 59.9 °F 59 °F 29.91 in Calm     97% 0 in meteobridge W/m2
07:29 60.1 °F 59.2 °F 29.92 in Calm     97% 0 in meteobridge W/m2
07:34 60.1 °F 59.2 °F 29.91 in Calm     97% 0 in meteobridge W/m2
07:39 60.3 °F 59.4 °F 29.92 in Calm     97% 0 in meteobridge W/m2
07:44 60.3 °F 59.4 °F 29.92 in Calm     97% 0 in meteobridge W/m2
07:49 60.3 °F 59.4 °F 29.92 in Calm     97% 0 in meteobridge W/m2
07:54 60.4 °F 59.5 °F 29.92 in Calm     97% 0 in meteobridge W/m2
07:59 60.4 °F 59.5 °F 29.92 in Calm     97% 0 in meteobridge W/m2
08:04 60.6 °F 59.7 °F 29.92 in Calm     97% 0 in meteobridge W/m2
08:09 60.8 °F 59.9 °F 29.92 in Calm     97% 0 in meteobridge W/m2
08:14 61 °F 60.1 °F 29.92 in Calm     97% 0 in meteobridge W/m2
08:19 61.2 °F 60.3 °F 29.92 in Calm     97% 0 in meteobridge W/m2
08:24 61.3 °F 60.4 °F 29.92 in Calm     97% 0 in meteobridge W/m2
08:29 61.5 °F 60.4 °F 29.92 in Calm     96% 0 in meteobridge W/m2
08:34 61.9 °F 60.8 °F 29.92 in Calm     96% 0 in meteobridge W/m2
08:39 62.1 °F 60.6 °F 29.92 in Calm     95% 0 in meteobridge W/m2
08:44 62.2 °F 60.8 °F 29.91 in Calm     95% 0 in meteobridge W/m2
08:49 62.4 °F 61 °F 29.91 in Calm     95% 0 in meteobridge W/m2
08:54 62.4 °F 61 °F 29.91 in Calm     95% 0 in meteobridge W/m2
08:59 63 °F 61.5 °F 29.91 in Calm     95% 0 in meteobridge W/m2
09:04 63.3 °F 61.5 °F 29.91 in Calm     94% 0 in meteobridge W/m2
09:09 63.9 °F 62.1 °F 29.91 in Calm     94% 0 in meteobridge W/m2
09:14 64.6 °F 62.8 °F 29.91 in Calm     94% 0 in meteobridge W/m2
09:19 65.1 °F 63 °F 29.91 in Calm     93% 0 in meteobridge W/m2
09:24 65.7 °F 63.3 °F 29.91 in Calm     92% 0 in meteobridge W/m2
09:29 66 °F 63.7 °F 29.91 in Calm     92% 0 in meteobridge W/m2
09:34 66.6 °F 63.1 °F 29.91 in Calm     89% 0 in meteobridge W/m2
09:39 66.9 °F 63.5 °F 29.91 in Calm     89% 0 in meteobridge W/m2
09:44 67.5 °F 64 °F 29.91 in Calm     89% 0 in meteobridge W/m2
09:49 68.2 °F 64.8 °F 29.91 in Calm     89% 0 in meteobridge W/m2
09:54 68.5 °F 65.1 °F 29.91 in Calm     89% 0 in meteobridge W/m2
09:59 69.3 °F 65.3 °F 29.91 in Calm   1 mph 87% 0 in meteobridge W/m2
10:04 69.8 °F 65.5 °F 29.91 in Calm   2 mph 86% 0 in meteobridge W/m2
10:09 70.3 °F 66 °F 29.91 in Calm     86% 0 in meteobridge W/m2
10:14 70.7 °F 65.7 °F 29.91 in Calm     84% 0 in meteobridge W/m2
10:19 71.2 °F 66.2 °F 29.90 in Calm     84% 0 in meteobridge W/m2
10:24 71.8 °F 67.3 °F 29.90 in Calm     86% 0 in meteobridge W/m2
10:29 72 °F 67.5 °F 29.91 in Calm     86% 0 in meteobridge W/m2
10:34 72.1 °F 67.6 °F 29.91 in Calm     86% 0 in meteobridge W/m2
10:39 72.3 °F 67.8 °F 29.91 in Calm     86% 0 in meteobridge W/m2
10:44 72.7 °F 66.9 °F 29.91 in Calm     82% 0 in meteobridge W/m2
10:49 72.9 °F 68 °F 29.91 in Calm     85% 0 in meteobridge W/m2
10:54 73.2 °F 67.5 °F 29.91 in Calm     82% 0 in meteobridge W/m2
10:59 73.8 °F 67.3 °F 29.90 in Calm     80% 0 in meteobridge W/m2
11:04 74.5 °F 67.1 °F 29.90 in Calm   1 mph 78% 0 in meteobridge W/m2
11:09 75 °F 66.6 °F 29.90 in Calm   1 mph 75% 0 in meteobridge W/m2
11:14 75.6 °F 67.1 °F 29.90 in Calm   4 mph 75% 0 in meteobridge W/m2
11:19 75.9 °F 67.1 °F 29.90 in Calm     74% 0 in meteobridge W/m2
11:24 76.3 °F 66.6 °F 29.90 in Calm     72% 0 in meteobridge W/m2
11:29 76.3 °F 67.5 °F 29.90 in Calm     74% 0 in meteobridge W/m2
11:34 76.1 °F 66.7 °F 29.90 in Calm     73% 0 in meteobridge W/m2
11:39 76.1 °F 67.3 °F 29.89 in Calm   1 mph 74% 0 in meteobridge W/m2
11:44 75.9 °F 67.5 °F 29.89 in Calm     75% 0 in meteobridge W/m2
11:49 75.7 °F 67.3 °F 29.89 in Calm     75% 0 in meteobridge W/m2
11:54 75.6 °F 66.7 °F 29.88 in Calm     74% 0 in meteobridge W/m2
11:59 75.7 °F 68.4 °F 29.87 in Calm     78% 0 in meteobridge W/m2
12:04 75.7 °F 67.3 °F 29.87 in Calm     75% 0 in meteobridge W/m2
12:09 75.7 °F 65.7 °F 29.88 in NNW 2.9 mph 8 mph 71% 0 in meteobridge W/m2
12:14 74.3 °F 63.9 °F 29.90 in NW 6 mph 8 mph 70% 0 in meteobridge W/m2
12:19 70.9 °F 64 °F 29.88 in SE 0.9 mph 8 mph 79% 0.04 in meteobridge W/m2
12:24 68.2 °F 64.2 °F 29.88 in Calm   1 mph 87% 0.08 in meteobridge W/m2
12:29 66.7 °F 63.7 °F 29.89 in Calm   1 mph 90% 0.13 in meteobridge W/m2
12:34 66 °F 63.3 °F 29.88 in Calm     91% 0.17 in meteobridge W/m2
12:39 65.8 °F 64 °F 29.89 in Calm     94% 0.21 in meteobridge W/m2
12:44 66 °F 64.2 °F 29.89 in Calm   4 mph 94% 0.25 in meteobridge W/m2
12:49 65.8 °F 64 °F 29.88 in Calm     94% 0.27 in meteobridge W/m2
12:54 65.8 °F 64 °F 29.89 in Calm     94% 0.3 in meteobridge W/m2
12:59 65.7 °F 63.9 °F 29.90 in Calm     94% 0.32 in meteobridge W/m2
13:04 65.5 °F 63.7 °F 29.90 in Calm   3 mph 94% 0.34 in meteobridge W/m2
13:09 65.1 °F 63.3 °F 29.92 in Calm     94% 0.35 in meteobridge W/m2
13:14 65.1 °F 63.7 °F 29.91 in Calm     95% 0.36 in meteobridge W/m2
13:19 64.9 °F 63.9 °F 29.90 in Calm     96% 0.33 in meteobridge W/m2
13:24 64.9 °F 63.9 °F 29.91 in Calm     96% 0.3 in meteobridge W/m2
13:29 64.9 °F 63.9 °F 29.91 in Calm     96% 0.27 in meteobridge W/m2
13:34 64.8 °F 63.7 °F 29.90 in Calm     96% 0.23 in meteobridge W/m2
13:39 64.8 °F 63.7 °F 29.90 in Calm     96% 0.19 in meteobridge W/m2
13:44 64.8 °F 63.7 °F 29.89 in Calm     96% 0.16 in meteobridge W/m2
13:49 64.9 °F 64 °F 29.89 in Calm     97% 0.14 in meteobridge W/m2
13:54 65.5 °F 64.6 °F 29.88 in Calm     97% 0.11 in meteobridge W/m2
13:59 65.8 °F 65.3 °F 29.88 in Calm     98% 0.09 in meteobridge W/m2
14:04 65.8 °F 64.4 °F 29.88 in Calm     95% 0.08 in meteobridge W/m2
14:09 66 °F 64.8 °F 29.88 in Calm     96% 0.07 in meteobridge W/m2
14:14 66.2 °F 64.8 °F 29.88 in Calm     95% 0.06 in meteobridge W/m2
14:19 66.6 °F 65.1 °F 29.88 in Calm   3 mph 95% 0.05 in meteobridge W/m2
14:24 66.9 °F 64.6 °F 29.88 in Calm   3 mph 92% 0.04 in meteobridge W/m2
14:29 67.3 °F 65.5 °F 29.88 in Calm     94% 0.04 in meteobridge W/m2
14:34 67.6 °F 64.9 °F 29.88 in Calm     91% 0.03 in meteobridge W/m2
14:39 68.2 °F 66 °F 29.88 in Calm     93% 0.03 in meteobridge W/m2
14:44 68.2 °F 64.4 °F 29.87 in Calm   3 mph 88% 0.03 in meteobridge W/m2
14:49 68.5 °F 65.5 °F 29.87 in Calm   1 mph 90% 0.03 in meteobridge W/m2
14:54 68.7 °F 65.3 °F 29.87 in WNW 0.9 mph 2 mph 89% 0.04 in meteobridge W/m2
14:59 69.1 °F 65.3 °F 29.87 in Calm   1 mph 88% 0.04 in meteobridge W/m2
15:04 69.3 °F 64.6 °F 29.87 in Calm     85% 0.04 in meteobridge W/m2
15:09 69.3 °F 63.5 °F 29.87 in Calm     82% 0.03 in meteobridge W/m2
15:14 69.3 °F 65.3 °F 29.86 in Calm     87% 0.03 in meteobridge W/m2
15:19 69.1 °F 66 °F 29.86 in Calm     90% 0.03 in meteobridge W/m2
15:24 69.1 °F 65.3 °F 29.86 in Calm     88% 0.03 in meteobridge W/m2
15:29 69.3 °F 66.9 °F 29.85 in Calm     92% 0.02 in meteobridge W/m2
15:34 69.4 °F 66.4 °F 29.85 in Calm     90% 0.02 in meteobridge W/m2
15:39 69.4 °F 66 °F 29.85 in Calm     89% 0.02 in meteobridge W/m2
15:44 69.6 °F 66.6 °F 29.85 in Calm     90% 0.01 in meteobridge W/m2
15:49 69.8 °F 67.1 °F 29.85 in Calm     91% 0.01 in meteobridge W/m2
15:54 70 °F 67.5 °F 29.85 in Calm     92% 0 in meteobridge W/m2
15:59 70 °F 66.2 °F 29.85 in Calm   2 mph 88% 0 in meteobridge W/m2
16:04 70.3 °F 67.3 °F 29.84 in Calm     90% 0 in meteobridge W/m2
16:09 70.3 °F 66 °F 29.83 in WNW 0.9 mph 2 mph 86% 0 in meteobridge W/m2
16:14 70.9 °F 66.2 °F 29.83 in NW 2.9 mph 4 mph 85% 0 in meteobridge W/m2
16:19 71.2 °F 67.1 °F 29.83 in Calm     87% 0 in meteobridge W/m2
16:24 71.6 °F 66.6 °F 29.83 in Calm     84% 0 in meteobridge W/m2
16:29 71.8 °F 66.7 °F 29.83 in Calm   3 mph 84% 0 in meteobridge W/m2
16:34 72.1 °F 66.7 °F 29.84 in Calm     83% 0 in meteobridge W/m2
16:39 72.1 °F 66.7 °F 29.84 in Calm   1 mph 83% 0 in meteobridge W/m2
16:44 72 °F 66.9 °F 29.84 in Calm   2 mph 84% 0 in meteobridge W/m2
16:49 71.8 °F 66 °F 29.84 in NW 2 mph 3 mph 82% 0 in meteobridge W/m2
16:54 71.8 °F 66 °F 29.84 in Calm     82% 0 in meteobridge W/m2
16:59 71.8 °F 66.7 °F 29.83 in Calm     84% 0 in meteobridge W/m2
17:04 71.8 °F 66.7 °F 29.83 in NE 0.9 mph 1 mph 84% 0 in meteobridge W/m2
17:09 71.6 °F 66.6 °F 29.82 in Calm   3 mph 84% 0 in meteobridge W/m2
17:14 71.4 °F 67.1 °F 29.82 in Calm     86% 0 in meteobridge W/m2
17:19 71.4 °F 67.1 °F 29.82 in Calm     86% 0 in meteobridge W/m2
17:24 71.2 °F 65.5 °F 29.82 in Calm   3 mph 82% 0 in meteobridge W/m2
17:29 71.2 °F 65.8 °F 29.81 in Calm     83% 0 in meteobridge W/m2
17:34 71.4 °F 66.4 °F 29.81 in Calm   2 mph 84% 0 in meteobridge W/m2
17:39 71.2 °F 66.2 °F 29.81 in Calm     84% 0 in meteobridge W/m2
17:44 71.2 °F 66.6 °F 29.80 in Calm     85% 0 in meteobridge W/m2
17:49 71.2 °F 66.6 °F 29.80 in Calm     85% 0 in meteobridge W/m2
17:54 71.2 °F 65.8 °F 29.80 in Calm     83% 0 in meteobridge W/m2
17:59 71.2 °F 65.8 °F 29.79 in Calm     83% 0 in meteobridge W/m2
18:04 71.2 °F 66.2 °F 29.80 in Calm     84% 0 in meteobridge W/m2
18:09 71.1 °F 66.7 °F 29.80 in Calm     86% 0 in meteobridge W/m2
18:14 71.1 °F 67.3 °F 29.80 in Calm     88% 0 in meteobridge W/m2
18:19 71.1 °F 67.6 °F 29.80 in Calm     89% 0 in meteobridge W/m2
18:24 70.9 °F 67.8 °F 29.80 in Calm     90% 0 in meteobridge W/m2
18:29 70.9 °F 67.5 °F 29.80 in Calm     89% 0 in meteobridge W/m2
18:34 70.7 °F 66.6 °F 29.80 in Calm     87% 0 in meteobridge W/m2
18:39 70.5 °F 66.4 °F 29.80 in Calm     87% 0 in meteobridge W/m2
18:44 70.5 °F 66.7 °F 29.80 in Calm     88% 0 in meteobridge W/m2
18:49 70.5 °F 66.7 °F 29.80 in Calm     88% 0 in meteobridge W/m2
18:54 70.3 °F 66.6 °F 29.79 in Calm     88% 0 in meteobridge W/m2
18:59 70.3 °F 66.9 °F 29.80 in Calm     89% 0 in meteobridge W/m2
19:04 70.2 °F 66.7 °F 29.79 in Calm     89% 0 in meteobridge W/m2
19:09 70 °F 66.6 °F 29.80 in Calm     89% 0 in meteobridge W/m2
19:14 69.8 °F 66.7 °F 29.79 in Calm     90% 0 in meteobridge W/m2
19:19 69.6 °F 66.6 °F 29.79 in Calm     90% 0 in meteobridge W/m2
19:24 69.4 °F 66.7 °F 29.80 in Calm     91% 0 in meteobridge W/m2
19:29 69.1 °F 66.7 °F 29.80 in Calm     92% 0 in meteobridge W/m2
19:34 69.1 °F 66.7 °F 29.79 in Calm     92% 0 in meteobridge W/m2
19:39 68.7 °F 66.4 °F 29.80 in Calm     92% 0 in meteobridge W/m2
19:44 68.7 °F 66.4 °F 29.80 in Calm     92% 0 in meteobridge W/m2
19:49 68.7 °F 66.6 °F 29.80 in Calm     93% 0 in meteobridge W/m2
19:54 68.5 °F 66.4 °F 29.80 in Calm     93% 0 in meteobridge W/m2
19:59 68.5 °F 66.4 °F 29.80 in Calm     93% 0 in meteobridge W/m2
20:04 68.4 °F 66.2 °F 29.80 in Calm     93% 0 in meteobridge W/m2
20:09 68.4 °F 66.6 °F 29.80 in Calm     94% 0 in meteobridge W/m2
20:14 68.4 °F 66.6 °F 29.80 in Calm     94% 0 in meteobridge W/m2
20:19 68.2 °F 66.4 °F 29.80 in Calm     94% 0 in meteobridge W/m2
20:24 68.2 °F 66.7 °F 29.80 in Calm     95% 0 in meteobridge W/m2
20:29 67.8 °F 66.4 °F 29.81 in Calm     95% 0 in meteobridge W/m2
20:34 67.8 °F 66.4 °F 29.81 in Calm     95% 0 in meteobridge W/m2
20:39 67.6 °F 66.2 °F 29.81 in Calm     95% 0.01 in meteobridge W/m2
20:44 67.6 °F 66.4 °F 29.81 in Calm     96% 0.01 in meteobridge W/m2
20:49 67.6 °F 66.4 °F 29.81 in Calm     96% 0.02 in meteobridge W/m2
20:54 67.5 °F 66.2 °F 29.81 in Calm     96% 0.02 in meteobridge W/m2
20:59 67.5 °F 66.2 °F 29.81 in Calm     96% 0.03 in meteobridge W/m2
21:04 67.5 °F 66.2 °F 29.81 in Calm     96% 0.03 in meteobridge W/m2
21:09 67.3 °F 66 °F 29.81 in Calm     96% 0.04 in meteobridge W/m2
21:14 66.9 °F 65.7 °F 29.82 in Calm     96% 0.04 in meteobridge W/m2
21:19 66.9 °F 66 °F 29.81 in Calm     97% 0.04 in meteobridge W/m2
21:24 66.9 °F 66 °F 29.81 in Calm     97% 0.05 in meteobridge W/m2
21:29 66.7 °F 65.8 °F 29.81 in Calm     97% 0.05 in meteobridge W/m2
21:34 66.7 °F 65.8 °F 29.81 in Calm     97% 0.05 in meteobridge W/m2
21:39 66.7 °F 65.8 °F 29.80 in Calm     97% 0.04 in meteobridge W/m2
21:44 66.7 °F 65.8 °F 29.80 in Calm     97% 0.05 in meteobridge W/m2
21:49 66.6 °F 65.7 °F 29.80 in Calm     97% 0.04 in meteobridge W/m2
21:54 66.6 °F 65.7 °F 29.80 in Calm     97% 0.04 in meteobridge W/m2
21:59 66.6 °F 65.7 °F 29.81 in Calm     97% 0.03 in meteobridge W/m2
22:04 66.6 °F 65.7 °F 29.80 in Calm     97% 0.04 in meteobridge W/m2
22:09 66.4 °F 65.8 °F 29.80 in Calm     98% 0.03 in meteobridge W/m2
22:14 66.4 °F 65.5 °F 29.80 in Calm     97% 0.03 in meteobridge W/m2
22:19 66.4 °F 65.5 °F 29.80 in Calm     97% 0.03 in meteobridge W/m2
22:24 66.4 °F 65.8 °F 29.79 in Calm     98% 0.02 in meteobridge W/m2
22:29 66.2 °F 65.3 °F 29.79 in Calm     97% 0.03 in meteobridge W/m2
22:34 66 °F 65.1 °F 29.78 in Calm     97% 0.03 in meteobridge W/m2
22:39 65.8 °F 64.9 °F 29.77 in Calm     97% 0.02 in meteobridge W/m2
22:44 65.7 °F 64.8 °F 29.77 in Calm     97% 0.02 in meteobridge W/m2
22:49 65.5 °F 64.2 °F 29.77 in Calm     96% 0.03 in meteobridge W/m2
22:54 64.9 °F 64 °F 29.76 in Calm     97% 0.03 in meteobridge W/m2
22:59 64.9 °F 64 °F 29.77 in Calm     97% 0.03 in meteobridge W/m2
23:04 64.8 °F 63.9 °F 29.77 in Calm     97% 0.02 in meteobridge W/m2
23:09 64.8 °F 63.9 °F 29.77 in Calm     97% 0.03 in meteobridge W/m2
23:14 64.8 °F 63.9 °F 29.77 in Calm     97% 0.03 in meteobridge W/m2
23:19 64.6 °F 63.7 °F 29.77 in Calm     97% 0.03 in meteobridge W/m2
23:24 64.6 °F 63.7 °F 29.77 in Calm     97% 0.03 in meteobridge W/m2
23:29 64.4 °F 63.5 °F 29.77 in Calm     97% 0.03 in meteobridge W/m2
23:34 64.2 °F 63.3 °F 29.77 in Calm     97% 0.03 in meteobridge W/m2
23:39 64.2 °F 63.3 °F 29.77 in Calm     97% 0.03 in meteobridge W/m2
23:44 64.2 °F 63.3 °F 29.77 in Calm     97% 0.03 in meteobridge W/m2
23:49 64.2 °F 63.3 °F 29.76 in Calm     97% 0.03 in meteobridge W/m2
23:54 64 °F 63.1 °F 29.76 in Calm     97% 0.03 in meteobridge W/m2
23:59 64 °F 63.1 °F 29.76 in Calm     97% 0.03 in meteobridge W/m2
EllijayWeather
Compliments of Weather Underground - 2.5 mb